createdAt,value
2019-03-27T00:02:21.134Z,11.37
2019-03-27T00:04:49.807Z,9.50
2019-03-27T00:07:18.415Z,11.40
2019-03-27T00:09:49.715Z,12.33
2019-03-27T00:12:18.355Z,10.53
2019-03-27T00:14:46.951Z,11.53
2019-03-27T00:17:15.642Z,10.00
2019-03-27T00:19:44.206Z,8.27
2019-03-27T00:22:12.753Z,11.00
2019-03-27T00:24:41.337Z,12.00
2019-03-27T00:27:09.878Z,13.47
2019-03-27T00:29:38.504Z,12.37
2019-03-27T00:32:07.135Z,11.50
2019-03-27T00:34:35.672Z,12.43
2019-03-27T00:37:04.220Z,10.00
2019-03-27T00:39:32.749Z,12.50
2019-03-27T00:42:01.455Z,15.20
2019-03-27T00:44:31.061Z,10.93
2019-03-27T00:47:02.719Z,8.67
2019-03-27T00:49:33.018Z,9.33
2019-03-27T00:52:01.622Z,8.40
2019-03-27T00:54:30.150Z,8.07
2019-03-27T00:56:58.721Z,9.03
2019-03-27T00:59:27.251Z,9.47
2019-03-27T01:01:55.846Z,9.00
2019-03-27T01:04:24.451Z,13.63
2019-03-27T01:06:53.086Z,11.97
2019-03-27T01:09:21.826Z,10.10
2019-03-27T01:11:50.400Z,10.43
2019-03-27T01:14:19.031Z,12.23
2019-03-27T01:16:47.654Z,10.90
2019-03-27T01:19:16.178Z,9.73
2019-03-27T01:21:44.785Z,8.97
2019-03-27T01:24:13.468Z,11.83
2019-03-27T01:26:42.030Z,9.53
2019-03-27T01:29:10.493Z,10.57
2019-03-27T01:31:41.322Z,12.70
2019-03-27T01:34:09.860Z,12.40
2019-03-27T01:36:38.509Z,13.27
2019-03-27T01:39:07.700Z,9.03
2019-03-27T01:41:36.340Z,10.00
2019-03-27T01:44:04.970Z,10.60
2019-03-27T01:46:33.495Z,9.63
2019-03-27T01:49:01.991Z,8.90
2019-03-27T01:51:30.596Z,10.00
2019-03-27T01:53:59.171Z,11.00
2019-03-27T01:56:27.875Z,12.03
2019-03-27T01:58:56.512Z,8.43
2019-03-27T02:01:25.043Z,10.77
2019-03-27T02:03:53.584Z,10.17
2019-03-27T02:06:22.041Z,9.27
2019-03-27T02:08:50.511Z,10.50
2019-03-27T02:11:19.113Z,13.43
2019-03-27T02:13:49.179Z,7.80
2019-03-27T02:16:17.707Z,9.27
2019-03-27T02:18:46.333Z,10.27
2019-03-27T02:21:16.030Z,9.73
2019-03-27T02:23:44.563Z,13.50
2019-03-27T02:26:13.218Z,11.23
2019-03-27T02:28:41.896Z,7.40
2019-03-27T02:31:14.880Z,10.50
2019-03-27T02:33:40.679Z,9.87
2019-03-27T02:36:09.296Z,12.67
2019-03-27T02:38:37.902Z,9.80
2019-03-27T02:41:06.438Z,11.10
2019-03-27T02:43:34.972Z,10.93
2019-03-27T02:46:03.897Z,9.83
2019-03-27T02:48:32.459Z,12.23
2019-03-27T02:51:00.963Z,6.77
2019-03-27T02:53:31.523Z,7.97
2019-03-27T02:55:59.887Z,13.50
2019-03-27T02:58:28.422Z,10.30
2019-03-27T03:00:56.954Z,11.30
2019-03-27T03:03:25.566Z,9.00
2019-03-27T03:05:54.123Z,8.03
2019-03-27T03:08:22.794Z,10.57
2019-03-27T03:10:51.317Z,9.90
2019-03-27T03:13:19.849Z,10.63
2019-03-27T03:15:48.454Z,11.53
2019-03-27T03:18:16.990Z,8.93
2019-03-27T03:20:45.604Z,16.83
2019-03-27T03:23:14.066Z,21.33
2019-03-27T03:25:42.711Z,17.30
2019-03-27T03:28:11.248Z,22.27
2019-03-27T03:30:39.935Z,18.50
2019-03-27T03:33:08.539Z,22.63
2019-03-27T03:35:37.105Z,21.60
2019-03-27T03:38:05.709Z,32.43
2019-03-27T03:40:34.276Z,21.30
2019-03-27T03:43:02.907Z,14.70
2019-03-27T03:45:31.471Z,11.27
2019-03-27T03:48:00.044Z,10.80
2019-03-27T03:50:39.905Z,8.27
2019-03-27T03:53:16.229Z,9.23
2019-03-27T03:55:44.949Z,10.13
2019-03-27T03:58:15.048Z,7.27
2019-03-27T04:00:44.073Z,11.13
2019-03-27T04:03:12.706Z,10.47
2019-03-27T04:05:41.352Z,11.80
2019-03-27T04:08:09.972Z,11.33
2019-03-27T04:10:38.610Z,11.83
2019-03-27T04:13:07.404Z,9.53
2019-03-27T04:15:36.031Z,8.40
2019-03-27T04:18:04.604Z,9.50
2019-03-27T04:20:33.271Z,11.00
2019-03-27T04:23:01.875Z,8.93
2019-03-27T04:25:53.859Z,10.00
2019-03-27T04:28:00.946Z,9.27
2019-03-27T04:30:30.754Z,7.63
2019-03-27T04:33:01.385Z,7.57
2019-03-27T04:35:31.583Z,8.60
2019-03-27T04:38:00.034Z,8.47
2019-03-27T04:40:28.624Z,9.50
2019-03-27T04:42:59.284Z,8.27
2019-03-27T04:45:27.958Z,7.60
2019-03-27T04:47:56.596Z,10.53
2019-03-27T04:50:30.106Z,7.10
2019-03-27T04:52:55.503Z,9.00
2019-03-27T04:55:23.971Z,10.43
2019-03-27T04:57:52.502Z,9.63
2019-03-27T05:00:21.258Z,10.03
2019-03-27T05:02:49.719Z,9.93
2019-03-27T05:05:18.327Z,12.03
2019-03-27T05:07:46.860Z,14.43
2019-03-27T05:10:15.506Z,10.47
2019-03-27T05:12:44.041Z,9.53
2019-03-27T05:15:12.769Z,12.63
2019-03-27T05:17:46.147Z,10.20
2019-03-27T05:20:11.773Z,10.03
2019-03-27T05:22:40.976Z,13.30
2019-03-27T05:25:09.553Z,10.63
2019-03-27T05:27:38.033Z,8.93
2019-03-27T05:30:08.660Z,11.23
2019-03-27T05:32:37.303Z,13.60
2019-03-27T05:35:07.314Z,10.33
2019-03-27T05:37:35.924Z,14.67
2019-03-27T05:40:06.766Z,11.07
2019-03-27T05:42:35.318Z,8.43
2019-03-27T05:45:04.722Z,9.63
2019-03-27T05:47:33.404Z,7.60
2019-03-27T05:50:02.045Z,11.33
2019-03-27T05:52:30.565Z,8.90
2019-03-27T05:54:59.557Z,10.43
2019-03-27T05:57:28.168Z,9.77
2019-03-27T05:59:56.715Z,7.93
2019-03-27T06:02:25.414Z,10.10
2019-03-27T06:04:53.938Z,10.57
2019-03-27T06:07:24.510Z,8.57
2019-03-27T06:09:52.997Z,9.87
2019-03-27T06:12:21.633Z,9.00
2019-03-27T06:14:54.575Z,10.67
2019-03-27T06:17:23.183Z,11.10
2019-03-27T06:19:51.732Z,8.77
2019-03-27T06:22:20.447Z,10.13
2019-03-27T06:24:49.091Z,10.70
2019-03-27T06:27:17.641Z,11.93
2019-03-27T06:29:46.133Z,11.37
2019-03-27T06:32:14.776Z,10.90
2019-03-27T06:34:43.459Z,9.00
2019-03-27T06:37:12.078Z,11.43
2019-03-27T06:39:40.669Z,10.80
2019-03-27T06:42:09.223Z,10.80
2019-03-27T06:44:37.828Z,10.27
2019-03-27T06:47:06.437Z,10.13
2019-03-27T06:49:35.032Z,9.80
2019-03-27T06:52:03.651Z,9.43
2019-03-27T06:54:32.230Z,13.73
2019-03-27T06:57:01.365Z,8.57
2019-03-27T06:59:30.027Z,13.80
2019-03-27T07:01:58.697Z,11.17
2019-03-27T07:04:27.222Z,11.60
2019-03-27T07:06:55.845Z,11.57
2019-03-27T07:09:24.311Z,14.60
2019-03-27T07:11:52.990Z,8.60
2019-03-27T07:14:21.958Z,11.13
2019-03-27T07:16:50.488Z,14.20
2019-03-27T07:19:19.047Z,8.43
2019-03-27T07:21:47.645Z,9.97
2019-03-27T07:24:16.253Z,7.87
2019-03-27T07:26:44.791Z,10.23
2019-03-27T07:29:13.385Z,12.33
2019-03-27T07:31:41.994Z,15.87
2019-03-27T07:34:10.601Z,12.97
2019-03-27T07:36:39.139Z,8.07
2019-03-27T07:39:11.219Z,10.57
2019-03-27T07:41:38.034Z,10.97
2019-03-27T07:44:06.739Z,11.70
2019-03-27T07:46:35.365Z,10.67
2019-03-27T07:49:03.998Z,8.90
2019-03-27T07:51:32.592Z,7.57
2019-03-27T07:54:01.218Z,9.67
2019-03-27T07:56:29.753Z,12.93
2019-03-27T07:58:59.861Z,10.93
2019-03-27T08:01:28.776Z,11.70
2019-03-27T08:03:57.374Z,9.87
2019-03-27T08:06:28.268Z,10.07
2019-03-27T08:08:56.795Z,11.33
2019-03-27T08:11:25.543Z,11.10
2019-03-27T08:13:54.505Z,9.50
2019-03-27T08:16:23.042Z,8.93
2019-03-27T08:18:51.639Z,9.93
2019-03-27T08:21:20.159Z,9.78
2019-03-27T08:23:48.700Z,8.50
2019-03-27T08:26:17.233Z,10.20
2019-03-27T08:28:45.835Z,10.73
2019-03-27T08:31:19.547Z,21.80
2019-03-27T08:33:48.073Z,12.80
2019-03-27T08:36:16.686Z,10.57
2019-03-27T08:38:45.288Z,12.43
2019-03-27T08:41:14.157Z,8.55
2019-03-27T08:43:44.740Z,10.37
2019-03-27T08:46:12.873Z,7.67
2019-03-27T08:48:41.412Z,12.10
2019-03-27T08:51:10.075Z,8.43
2019-03-27T08:53:38.713Z,9.40
2019-03-27T08:56:07.320Z,7.30
2019-03-27T08:58:35.914Z,7.87
2019-03-27T09:01:05.535Z,10.05
2019-03-27T09:03:34.180Z,16.12
2019-03-27T09:06:02.781Z,10.13
2019-03-27T09:08:31.399Z,8.00
2019-03-27T09:11:00.010Z,10.50
2019-03-27T09:13:28.619Z,8.58
2019-03-27T09:15:57.149Z,11.80
2019-03-27T09:18:25.689Z,8.00
2019-03-27T09:20:54.287Z,8.30
2019-03-27T09:23:22.880Z,7.90
2019-03-27T09:25:51.414Z,11.08
2019-03-27T09:28:20.085Z,8.25
2019-03-27T09:30:51.063Z,9.58
2019-03-27T09:33:19.702Z,8.38
2019-03-27T09:35:48.307Z,8.18
2019-03-27T09:38:16.950Z,7.22
2019-03-27T09:40:45.534Z,8.45
2019-03-27T09:43:14.129Z,7.92
2019-03-27T09:45:42.728Z,7.60
2019-03-27T09:48:11.358Z,7.00
2019-03-27T09:50:41.326Z,7.65
2019-03-27T09:53:11.335Z,6.85
2019-03-27T09:55:39.933Z,7.65
2019-03-27T09:58:08.538Z,11.35
2019-03-27T10:00:49.115Z,8.15
2019-03-27T10:03:17.860Z,7.67
2019-03-27T10:05:46.385Z,7.42
2019-03-27T10:08:14.903Z,7.33
2019-03-27T10:10:43.517Z,6.83
2019-03-27T10:13:12.132Z,7.40
2019-03-27T10:15:40.764Z,8.30
2019-03-27T10:18:09.440Z,10.03
2019-03-27T10:20:38.048Z,6.80
2019-03-27T10:23:07.524Z,11.80
2019-03-27T10:25:36.047Z,7.05
2019-03-27T10:28:04.682Z,20.17
2019-03-27T10:30:33.282Z,10.30
2019-03-27T10:33:01.881Z,6.90
2019-03-27T10:35:30.356Z,104.60
2019-03-27T10:37:58.996Z,7.30
2019-03-27T10:40:27.535Z,8.40
2019-03-27T10:42:56.067Z,6.20
2019-03-27T10:45:24.594Z,6.80
2019-03-27T10:47:53.116Z,8.48
2019-03-27T10:50:21.745Z,7.12
2019-03-27T10:52:50.275Z,6.95
2019-03-27T10:55:18.841Z,11.95
2019-03-27T10:57:47.452Z,7.22
2019-03-27T11:00:16.785Z,8.15
2019-03-27T11:02:45.316Z,6.10
2019-03-27T11:05:14.021Z,5.92
2019-03-27T11:07:42.619Z,7.30
2019-03-27T11:10:12.422Z,11.55
2019-03-27T11:12:41.023Z,12.58
2019-03-27T11:15:10.418Z,10.85
2019-03-27T11:17:39.026Z,10.82
2019-03-27T11:20:08.448Z,8.98
2019-03-27T11:22:37.015Z,8.80
2019-03-27T11:25:12.368Z,7.95
2019-03-27T11:27:42.045Z,8.28
2019-03-27T11:30:11.499Z,8.68
2019-03-27T11:32:40.074Z,8.40
2019-03-27T11:35:09.019Z,11.43
2019-03-27T11:37:37.547Z,7.83
2019-03-27T11:40:06.655Z,12.03
2019-03-27T11:42:35.184Z,12.10
2019-03-27T11:45:05.748Z,8.80
2019-03-27T11:47:35.539Z,8.83
2019-03-27T11:50:07.956Z,9.15
2019-03-27T11:52:36.581Z,9.13
2019-03-27T11:55:06.161Z,7.75
2019-03-27T11:57:34.760Z,9.60
2019-03-27T12:00:04.469Z,11.35
2019-03-27T12:02:33.078Z,11.35
2019-03-27T12:05:03.882Z,12.18
2019-03-27T12:07:32.370Z,11.15
2019-03-27T12:10:00.892Z,9.08
2019-03-27T12:12:29.379Z,10.55
2019-03-27T12:14:57.910Z,13.65
2019-03-27T12:17:28.141Z,9.50
2019-03-27T12:19:56.667Z,8.48
2019-03-27T12:22:25.270Z,10.65
2019-03-27T12:24:53.777Z,13.25
2019-03-27T12:27:22.246Z,11.85
2019-03-27T12:29:54.370Z,11.78
2019-03-27T12:32:25.003Z,12.30
2019-03-27T12:34:54.646Z,13.88
2019-03-27T12:37:23.181Z,12.98
2019-03-27T12:39:51.763Z,11.28
2019-03-27T12:42:20.293Z,12.58
2019-03-27T12:44:48.847Z,9.80
2019-03-27T12:47:17.377Z,8.65
2019-03-27T12:49:45.942Z,8.93
2019-03-27T12:52:14.540Z,8.48
2019-03-27T12:54:44.828Z,10.58
2019-03-27T12:57:13.380Z,8.33
2019-03-27T12:59:41.981Z,10.25
2019-03-27T13:02:10.586Z,10.70
2019-03-27T13:04:39.238Z,9.25
2019-03-27T13:07:07.771Z,11.50
2019-03-27T13:09:36.228Z,12.37
2019-03-27T13:12:10.030Z,10.05
2019-03-27T13:14:38.670Z,14.73
2019-03-27T13:17:07.233Z,9.45
2019-03-27T13:19:35.828Z,9.85
2019-03-27T13:22:04.440Z,11.08
2019-03-27T13:24:33.001Z,11.03
2019-03-27T13:27:01.615Z,11.03
2019-03-27T13:29:31.805Z,11.08
2019-03-27T13:32:07.626Z,9.08
2019-03-27T13:34:37.617Z,8.53
2019-03-27T13:37:06.242Z,7.90
2019-03-27T13:39:34.704Z,7.33
2019-03-27T13:42:03.235Z,8.93
2019-03-27T13:44:37.325Z,9.33
2019-03-27T13:47:02.356Z,12.03
2019-03-27T13:49:30.975Z,9.73
2019-03-27T13:51:59.648Z,9.10
2019-03-27T13:54:28.288Z,10.95
2019-03-27T13:56:56.816Z,10.13
2019-03-27T13:59:25.380Z,10.70
2019-03-27T14:01:53.983Z,10.25
2019-03-27T14:04:22.792Z,13.03
2019-03-27T14:06:57.264Z,9.30
2019-03-27T14:09:25.825Z,10.48
2019-03-27T14:11:54.365Z,10.15
2019-03-27T14:14:22.889Z,12.58
2019-03-27T14:16:51.423Z,10.98
2019-03-27T14:19:20.036Z,7.85
2019-03-27T14:21:54.633Z,9.55
2019-03-27T14:24:18.982Z,10.15
2019-03-27T14:26:47.627Z,9.47
2019-03-27T14:29:16.239Z,11.15
2019-03-27T14:31:44.848Z,13.48
2019-03-27T14:34:13.454Z,13.30
2019-03-27T14:36:43.924Z,11.43
2019-03-27T14:39:12.513Z,14.93
2019-03-27T14:41:41.120Z,11.15
2019-03-27T14:44:09.667Z,11.53
2019-03-27T14:46:42.197Z,9.38
2019-03-27T14:49:10.660Z,12.07
2019-03-27T14:51:39.252Z,10.58
2019-03-27T14:54:07.934Z,12.53
2019-03-27T14:56:36.400Z,10.35
2019-03-27T14:59:05.010Z,10.45
2019-03-27T15:01:35.584Z,12.35
2019-03-27T15:04:12.120Z,11.88
2019-03-27T15:06:40.683Z,10.15
2019-03-27T15:09:10.356Z,12.63
2019-03-27T15:11:38.870Z,11.78
2019-03-27T15:14:07.479Z,11.53
2019-03-27T15:16:36.153Z,13.48
2019-03-27T15:19:05.031Z,11.30
2019-03-27T15:21:33.659Z,15.40
2019-03-27T15:24:02.277Z,12.00
2019-03-27T15:26:30.865Z,14.53
2019-03-27T15:28:59.329Z,11.88
2019-03-27T15:31:27.896Z,14.73
2019-03-27T15:33:56.588Z,10.18
2019-03-27T15:36:25.061Z,12.58
2019-03-27T15:38:53.646Z,14.98
2019-03-27T15:41:22.283Z,16.15
2019-03-27T15:43:50.847Z,13.32
2019-03-27T15:46:19.416Z,11.80
2019-03-27T15:48:47.877Z,12.75
2019-03-27T15:51:17.993Z,16.15
2019-03-27T15:53:47.457Z,12.80
2019-03-27T15:56:16.232Z,12.75
2019-03-27T15:58:44.813Z,12.63
2019-03-27T16:01:13.416Z,11.73
2019-03-27T16:03:41.957Z,15.27
2019-03-27T16:06:10.493Z,15.95
2019-03-27T16:08:39.059Z,17.63
2019-03-27T16:11:07.831Z,23.70
2019-03-27T16:13:36.337Z,21.90
2019-03-27T16:16:04.920Z,17.87
2019-03-27T16:18:33.400Z,21.20
2019-03-27T16:21:02.021Z,15.43
2019-03-27T16:23:32.515Z,16.03
2019-03-27T16:26:01.039Z,21.65
2019-03-27T16:28:29.576Z,21.43
2019-03-27T16:30:58.254Z,30.13
2019-03-27T16:33:26.903Z,21.50
2019-03-27T16:35:55.559Z,26.10
2019-03-27T16:38:24.167Z,25.27
2019-03-27T16:40:52.943Z,26.00
2019-03-27T16:43:21.547Z,23.65
2019-03-27T16:45:50.539Z,23.77
2019-03-27T16:48:20.637Z,24.10
2019-03-27T16:50:49.314Z,24.90
2019-03-27T16:53:17.921Z,40.80
2019-03-27T16:55:47.042Z,53.48
2019-03-27T16:58:15.648Z,53.97
2019-03-27T17:00:44.306Z,59.40
2019-03-27T17:03:13.713Z,58.83
2019-03-27T17:05:53.371Z,57.03
2019-03-27T17:08:12.668Z,44.73
2019-03-27T17:10:41.416Z,49.30
2019-03-27T17:13:09.966Z,56.03
2019-03-27T17:15:38.608Z,57.60
2019-03-27T17:18:07.289Z,51.73
2019-03-27T17:20:35.822Z,49.93
2019-03-27T17:23:17.517Z,45.20
2019-03-27T17:25:34.860Z,58.50
2019-03-27T17:28:03.513Z,60.00
2019-03-27T17:30:32.230Z,58.43
2019-03-27T17:33:00.752Z,73.07
2019-03-27T17:35:29.375Z,64.83
2019-03-27T17:37:57.837Z,67.23
2019-03-27T17:40:26.488Z,69.20
2019-03-27T17:42:55.127Z,76.07
2019-03-27T17:45:23.777Z,76.17
2019-03-27T17:47:52.417Z,84.43
2019-03-27T17:50:21.055Z,84.50
2019-03-27T17:52:49.590Z,84.13
2019-03-27T17:55:18.135Z,96.63
2019-03-27T17:57:46.751Z,94.17
2019-03-27T18:00:19.719Z,67.73
2019-03-27T18:02:48.360Z,63.23
2019-03-27T18:05:16.982Z,63.13
2019-03-27T18:07:45.595Z,64.67
2019-03-27T18:10:14.777Z,57.10
2019-03-27T18:12:43.394Z,61.37
2019-03-27T18:15:12.435Z,54.43
2019-03-27T18:17:41.048Z,54.27
2019-03-27T18:20:09.818Z,59.17
2019-03-27T18:22:38.358Z,52.97
2019-03-27T18:25:07.190Z,45.27
2019-03-27T18:27:35.799Z,39.60
2019-03-27T18:30:07.085Z,52.17
2019-03-27T18:32:35.736Z,49.93
2019-03-27T18:35:05.853Z,63.47
2019-03-27T18:37:34.479Z,48.87
2019-03-27T18:40:03.918Z,45.77
2019-03-27T18:42:32.469Z,61.17
2019-03-27T18:45:01.060Z,52.87
2019-03-27T18:47:29.720Z,52.73
2019-03-27T18:49:58.291Z,58.30
2019-03-27T18:52:26.910Z,50.93
2019-03-27T18:54:59.463Z,56.93
2019-03-27T18:57:28.167Z,50.37
2019-03-27T18:59:56.770Z,50.90
2019-03-27T19:02:27.449Z,57.77
2019-03-27T19:04:56.111Z,59.47
2019-03-27T19:07:24.755Z,46.27
2019-03-27T19:09:53.589Z,43.60
2019-03-27T19:12:22.148Z,47.57
2019-03-27T19:14:50.709Z,53.77
2019-03-27T19:17:19.606Z,54.67
2019-03-27T19:19:48.375Z,60.63
2019-03-27T19:22:16.923Z,56.20
2019-03-27T19:24:45.533Z,54.03
2019-03-27T19:27:14.069Z,50.73
2019-03-27T19:29:45.036Z,57.10
2019-03-27T19:32:13.206Z,61.43
2019-03-27T19:34:42.045Z,110.17
2019-03-27T19:37:11.064Z,120.83
2019-03-27T19:39:39.738Z,101.47
2019-03-27T19:42:08.440Z,69.57
2019-03-27T19:44:37.123Z,61.27
2019-03-27T19:47:05.922Z,70.57
2019-03-27T19:49:34.568Z,75.73
2019-03-27T19:52:03.232Z,68.60
2019-03-27T19:54:31.772Z,61.27
2019-03-27T19:57:00.460Z,62.13
2019-03-27T19:59:29.045Z,48.30
2019-03-27T20:01:57.594Z,58.27
2019-03-27T20:04:26.195Z,59.83
2019-03-27T20:06:54.825Z,57.90
2019-03-27T20:09:23.319Z,61.57
2019-03-27T20:11:52.011Z,57.37
2019-03-27T20:14:20.619Z,63.90
2019-03-27T20:16:49.224Z,53.87
2019-03-27T20:19:17.814Z,43.17
2019-03-27T20:21:46.378Z,49.97
2019-03-27T20:24:15.221Z,49.90
2019-03-27T20:26:43.907Z,45.63
2019-03-27T20:29:12.479Z,46.80
2019-03-27T20:31:41.092Z,46.73
2019-03-27T20:34:09.723Z,44.27
2019-03-27T20:36:38.749Z,39.40
2019-03-27T20:39:09.004Z,42.37
2019-03-27T20:41:37.558Z,44.63
2019-03-27T20:44:06.176Z,42.00
2019-03-27T20:46:34.831Z,36.43
2019-03-27T20:49:03.431Z,37.90
2019-03-27T20:51:32.493Z,43.07
2019-03-27T20:54:01.513Z,41.70
2019-03-27T20:56:30.438Z,37.33
2019-03-27T20:59:01.317Z,49.50
2019-03-27T21:01:35.573Z,60.30
2019-03-27T21:03:59.691Z,58.67
2019-03-27T21:06:28.355Z,81.73
2019-03-27T21:08:57.123Z,79.00
2019-03-27T21:11:25.978Z,89.37
2019-03-27T21:13:54.548Z,98.87
2019-03-27T21:16:23.204Z,124.97
2019-03-27T21:18:51.858Z,124.67
2019-03-27T21:21:20.452Z,153.57
2019-03-27T21:23:49.093Z,126.03
2019-03-27T21:26:17.726Z,109.30
2019-03-27T21:28:46.309Z,109.00
2019-03-27T21:31:14.921Z,115.13
2019-03-27T21:33:43.501Z,114.03
2019-03-27T21:36:12.054Z,116.80
2019-03-27T21:38:40.679Z,108.53
2019-03-27T21:41:09.296Z,99.87
2019-03-27T21:43:37.881Z,89.23
2019-03-27T21:46:06.643Z,91.83
2019-03-27T21:48:35.251Z,91.60
2019-03-27T21:51:04.026Z,86.20
2019-03-27T21:53:34.782Z,82.60
2019-03-27T21:56:03.477Z,77.80
2019-03-27T21:58:32.061Z,64.67
2019-03-27T22:01:00.862Z,64.17
2019-03-27T22:03:29.509Z,65.40
2019-03-27T22:05:58.146Z,69.20
2019-03-27T22:08:26.793Z,64.97
2019-03-27T22:10:55.417Z,62.93
2019-03-27T22:13:24.022Z,63.57
2019-03-27T22:15:52.800Z,60.43
2019-03-27T22:18:21.522Z,67.00
2019-03-27T22:20:50.217Z,66.97
2019-03-27T22:23:18.808Z,66.43
2019-03-27T22:25:47.422Z,72.03
2019-03-27T22:28:16.221Z,74.23
2019-03-27T22:30:44.800Z,65.60
2019-03-27T22:33:13.422Z,64.17
2019-03-27T22:35:42.032Z,63.23
2019-03-27T22:38:10.578Z,61.53
2019-03-27T22:40:39.612Z,55.80
2019-03-27T22:43:08.252Z,57.53
2019-03-27T22:45:36.907Z,55.50
2019-03-27T22:48:05.518Z,57.93
2019-03-27T22:50:34.204Z,60.97
2019-03-27T22:53:03.165Z,64.17
2019-03-27T22:55:31.780Z,60.43
2019-03-27T22:58:00.476Z,58.07
2019-03-27T23:00:31.141Z,66.53
2019-03-27T23:03:00.565Z,65.23
2019-03-27T23:05:30.274Z,66.50
2019-03-27T23:08:16.453Z,67.90
2019-03-27T23:10:45.081Z,68.70
2019-03-27T23:13:13.768Z,62.73
2019-03-27T23:15:43.053Z,51.93
2019-03-27T23:18:11.697Z,47.10
2019-03-27T23:20:40.307Z,56.20
2019-03-27T23:23:08.950Z,50.40
2019-03-27T23:25:38.258Z,46.50
2019-03-27T23:28:06.903Z,42.60
2019-03-27T23:30:40.396Z,41.33
2019-03-27T23:33:09.052Z,48.37
2019-03-27T23:35:37.700Z,46.57
2019-03-27T23:38:06.430Z,39.30
2019-03-27T23:40:35.156Z,42.27
2019-03-27T23:43:03.765Z,51.13
2019-03-27T23:45:32.448Z,40.17
2019-03-27T23:48:01.128Z,44.30
2019-03-27T23:50:29.604Z,43.93
2019-03-27T23:52:58.306Z,43.43
2019-03-27T23:55:29.134Z,45.83
2019-03-27T23:57:57.749Z,42.67
